Time;durP1;ratioP1;P1;durP2;ratioP2;P2;SDS_P1;SDS_P2;PMS_P1;PMS_P2;Temp;Humidity;BMP_temperature;BMP_pressure;BME280_temperature;BME280_humidity;BME280_pressure;Samples;Min_cycle;Max_cycle;Signal;HPM_P1;HPM_P2
2024/01/03 00:00:34;;;;;;;26.90;16.50;;;8.50;99.90;;;;;;4905733;29;20369;-78
2024/01/03 00:03:00;;;;;;;27.30;14.35;;;8.60;99.90;;;;;;4917918;29;20069;-77
2024/01/03 00:05:37;;;;;;;22.48;13.45;;;8.70;99.90;;;;;;4920882;29;20036;-78
2024/01/03 00:08:30;;;;;;;20.23;9.73;;;8.70;99.90;;;;;;4920563;29;20148;-78
2024/01/03 00:10:57;;;;;;;16.85;8.63;;;8.80;99.90;;;;;;4922690;29;20047;-78
2024/01/03 00:13:29;;;;;;;20.45;7.93;;;8.90;99.90;;;;;;4923477;29;20086;-78
2024/01/03 00:16:01;;;;;;;15.98;6.70;;;9.00;99.90;;;;;;4917828;29;20496;-78
2024/01/03 00:18:38;;;;;;;17.10;6.65;;;9.00;99.90;;;;;;4920061;29;20043;-75
2024/01/03 00:21:09;;;;;;;13.35;6.30;;;9.10;99.90;;;;;;4920698;29;20370;-79
2024/01/03 00:23:46;;;;;;;16.92;7.28;;;9.20;99.30;;;;;;4918809;29;20047;-78
2024/01/03 00:26:13;;;;;;;18.17;7.18;;;9.10;99.60;;;;;;4918380;29;20490;-77
2024/01/03 00:28:40;;;;;;;16.17;7.78;;;9.10;99.40;;;;;;4916419;29;20511;-77
2024/01/03 00:31:09;;;;;;;17.77;7.68;;;9.20;99.20;;;;;;4924053;29;20024;-77
2024/01/03 00:33:41;;;;;;;16.75;8.18;;;9.20;99.20;;;;;;4919499;29;20402;-77
2024/01/03 00:36:10;;;;;;;15.80;8.88;;;9.20;99.20;;;;;;4919746;29;20377;-77
2024/01/03 00:38:38;;;;;;;19.77;9.88;;;9.20;99.30;;;;;;4917298;29;20115;-78
2024/01/03 00:41:04;;;;;;;18.23;8.73;;;9.20;99.40;;;;;;4920106;29;20487;-79
2024/01/03 00:43:30;;;;;;;34.70;18.20;;;9.20;99.60;;;;;;4923785;29;20088;-78
2024/01/03 00:45:56;;;;;;;58.25;31.95;;;9.10;99.50;;;;;;4920725;29;20024;-80
2024/01/03 00:48:23;;;;;;;47.72;26.30;;;9.20;99.10;;;;;;4917739;29;20040;-79
2024/01/03 00:50:49;;;;;;;34.63;12.90;;;9.20;99.00;;;;;;4917313;29;20024;-79
2024/01/03 00:53:16;;;;;;;22.50;9.38;;;9.20;99.00;;;;;;4920591;29;20043;-78
2024/01/03 00:55:42;;;;;;;17.60;8.30;;;9.30;98.90;;;;;;4922108;29;20695;-76
2024/01/03 00:58:09;;;;;;;15.57;7.85;;;9.30;98.70;;;;;;4918723;29;20469;-78
2024/01/03 01:00:36;;;;;;;15.00;7.32;;;9.30;98.70;;;;;;4919169;29;20480;-78
2024/01/03 01:03:03;;;;;;;14.73;6.63;;;9.40;98.80;;;;;;4916779;29;20024;-78
2024/01/03 01:05:29;;;;;;;18.65;7.82;;;9.40;98.80;;;;;;4905871;29;20122;-79
2024/01/03 01:07:55;;;;;;;16.30;7.95;;;9.40;98.20;;;;;;4918891;29;20048;-78
2024/01/03 01:10:21;;;;;;;16.42;7.57;;;9.40;98.30;;;;;;4899729;29;20040;-75
2024/01/03 01:12:47;;;;;;;17.15;6.88;;;9.50;98.50;;;;;;4913134;29;20036;-76
2024/01/03 01:15:13;;;;;;;13.88;6.47;;;9.50;98.60;;;;;;4912101;29;20036;-78
2024/01/03 01:17:41;;;;;;;16.15;6.95;;;9.50;98.30;;;;;;4915323;29;20021;-77
2024/01/03 01:20:07;;;;;;;14.73;7.47;;;9.60;98.00;;;;;;4901846;29;20039;-78
2024/01/03 01:22:33;;;;;;;14.82;7.18;;;9.60;98.00;;;;;;4898596;29;20073;-77
2024/01/03 01:25:00;;;;;;;13.82;7.05;;;9.60;98.30;;;;;;4898329;29;20024;-78
2024/01/03 01:27:25;;;;;;;13.57;5.90;;;9.60;97.90;;;;;;4897267;29;20495;-78
2024/01/03 01:29:51;;;;;;;11.15;4.78;;;9.70;97.40;;;;;;4911257;29;20063;-79
2024/01/03 01:32:17;;;;;;;15.10;6.13;;;9.70;97.50;;;;;;4899337;29;20080;-77
2024/01/03 01:34:43;;;;;;;16.85;8.20;;;9.70;98.00;;;;;;4911151;29;20119;-79
2024/01/03 01:37:09;;;;;;;12.32;5.97;;;9.70;98.10;;;;;;4912555;29;20041;-79
2024/01/03 01:39:35;;;;;;;11.98;4.95;;;9.80;98.00;;;;;;4896836;29;20024;-78
2024/01/03 01:42:00;;;;;;;19.75;8.82;;;9.70;97.60;;;;;;4900781;29;20115;-78
2024/01/03 01:44:26;;;;;;;14.77;6.28;;;9.80;97.80;;;;;;4910941;29;20044;-76
2024/01/03 01:46:53;;;;;;;17.42;7.88;;;9.80;97.80;;;;;;4898242;29;20021;-77
2024/01/03 01:49:20;;;;;;;17.80;8.68;;;9.70;98.00;;;;;;4910891;29;20532;-77
2024/01/03 01:51:47;;;;;;;15.48;7.85;;;9.70;98.00;;;;;;4914279;29;20036;-77
2024/01/03 01:54:13;;;;;;;19.00;8.75;;;9.70;97.70;;;;;;4911108;29;20084;-79
2024/01/03 01:56:40;;;;;;;16.83;7.90;;;9.80;97.70;;;;;;4915449;29;20037;-78
2024/01/03 01:59:07;;;;;;;17.55;8.68;;;9.80;98.00;;;;;;4910520;29;20075;-76
2024/01/03 02:01:36;;;;;;;21.48;9.35;;;9.80;98.00;;;;;;4897394;29;20055;-78
2024/01/03 02:04:07;;;;;;;17.40;8.15;;;9.70;98.10;;;;;;4901004;29;20060;-78
2024/01/03 02:06:35;;;;;;;14.90;7.63;;;9.80;98.10;;;;;;4901297;29;20525;-76
2024/01/03 02:09:01;;;;;;;15.88;7.82;;;9.80;97.80;;;;;;4898108;29;20115;-77
2024/01/03 02:11:27;;;;;;;15.15;7.93;;;9.80;98.10;;;;;;4913749;29;20126;-77
2024/01/03 02:13:53;;;;;;;16.15;6.47;;;9.80;97.90;;;;;;4914586;29;20051;-76
2024/01/03 02:16:18;;;;;;;15.68;6.85;;;9.80;97.90;;;;;;4917510;29;20055;-77
2024/01/03 02:18:44;;;;;;;14.32;5.90;;;9.80;97.90;;;;;;4917267;29;20032;-79
2024/01/03 02:21:17;;;;;;;12.25;5.45;;;9.80;97.80;;;;;;4924205;29;20358;-79
2024/01/03 02:23:43;;;;;;;13.05;5.45;;;9.80;97.90;;;;;;4916208;29;20480;-75
2024/01/03 02:26:09;;;;;;;17.95;6.13;;;9.80;98.10;;;;;;4901578;29;20024;-78
2024/01/03 02:28:36;;;;;;;16.17;5.65;;;9.80;97.90;;;;;;4920836;29;20044;-77
2024/01/03 02:31:02;;;;;;;14.52;6.18;;;9.80;97.60;;;;;;4921041;29;20503;-77
2024/01/03 02:33:28;;;;;;;11.85;5.00;;;9.80;97.80;;;;;;4933232;29;20061;-77
2024/01/03 02:35:54;;;;;;;13.73;6.30;;;9.80;97.70;;;;;;4932941;29;20058;-77
2024/01/03 02:38:21;;;;;;;11.45;5.82;;;9.80;97.90;;;;;;4933114;29;20068;-76
2024/01/03 02:40:50;;;;;;;12.00;5.72;;;9.80;97.40;;;;;;4921642;29;20028;-79
2024/01/03 02:43:15;;;;;;;13.52;5.68;;;9.90;97.40;;;;;;4919273;29;20396;-79
2024/01/03 02:45:41;;;;;;;14.48;4.90;;;9.90;97.20;;;;;;4917800;29;20027;-80
2024/01/03 02:48:07;;;;;;;12.50;4.90;;;10.00;97.10;;;;;;4915134;29;20451;-79
2024/01/03 02:50:33;;;;;;;10.48;4.63;;;10.10;96.90;;;;;;4918374;29;20023;-79
2024/01/03 02:53:00;;;;;;;9.15;4.63;;;10.10;96.80;;;;;;4915622;29;20028;-79
2024/01/03 02:55:26;;;;;;;11.32;4.45;;;10.20;96.80;;;;;;4915557;29;20032;-78
2024/01/03 02:57:52;;;;;;;11.73;5.00;;;10.20;96.70;;;;;;4918282;29;20036;-79
2024/01/03 03:00:18;;;;;;;12.38;5.38;;;10.20;96.80;;;;;;4920589;29;20115;-77
2024/01/03 03:02:44;;;;;;;16.83;6.32;;;10.20;96.70;;;;;;4916569;29;20057;-76
2024/01/03 03:05:14;;;;;;;10.95;5.18;;;10.20;96.70;;;;;;4917862;29;20028;-78
2024/01/03 03:07:39;;;;;;;15.77;5.68;;;10.30;96.70;;;;;;4915827;29;20135;-79
2024/01/03 03:10:10;;;;;;;12.13;4.93;;;10.30;96.60;;;;;;4917536;29;20519;-79
2024/01/03 03:12:36;;;;;;;14.27;5.60;;;10.30;96.50;;;;;;4917648;29;20412;-79
2024/01/03 03:15:02;;;;;;;11.48;5.57;;;10.30;96.50;;;;;;4920695;29;20033;-79
2024/01/03 03:17:28;;;;;;;10.27;3.67;;;10.30;96.70;;;;;;4919361;29;20036;-80
2024/01/03 03:19:54;;;;;;;13.65;6.28;;;10.40;96.60;;;;;;4919108;29;20027;-78
2024/01/03 03:22:20;;;;;;;10.82;4.97;;;10.30;96.70;;;;;;4921923;29;20060;-77
2024/01/03 03:24:46;;;;;;;16.17;8.48;;;10.40;96.80;;;;;;4923401;29;20116;-77
2024/01/03 03:27:11;;;;;;;12.15;4.03;;;10.40;96.90;;;;;;4919911;29;20031;-75
2024/01/03 03:29:37;;;;;;;10.80;3.80;;;10.40;96.90;;;;;;4920104;29;20039;-79
2024/01/03 03:32:04;;;;;;;9.48;4.35;;;10.40;96.90;;;;;;4918026;29;20047;-78
2024/01/03 03:34:30;;;;;;;9.93;4.95;;;10.40;96.70;;;;;;4921144;29;20028;-77
2024/01/03 03:36:55;;;;;;;9.05;3.95;;;10.50;96.70;;;;;;4920153;29;20079;-74
2024/01/03 03:39:21;;;;;;;9.07;4.18;;;10.40;96.60;;;;;;4921208;29;20464;-78
2024/01/03 03:41:47;;;;;;;11.68;4.85;;;10.50;96.60;;;;;;4923185;28;20026;-78
2024/01/03 03:44:13;;;;;;;17.17;7.30;;;10.50;96.70;;;;;;4921718;29;20031;-78
2024/01/03 03:46:39;;;;;;;14.57;7.70;;;10.50;96.80;;;;;;4920860;29;20032;-78
2024/01/03 03:49:05;;;;;;;16.80;7.25;;;10.50;96.80;;;;;;4921915;29;20032;-79
2024/01/03 03:51:31;;;;;;;14.35;7.53;;;10.50;97.00;;;;;;4918459;29;20035;-77
2024/01/03 03:53:57;;;;;;;16.15;8.18;;;10.50;96.80;;;;;;4918355;29;20028;-77
2024/01/03 03:56:24;;;;;;;15.63;8.18;;;10.50;96.90;;;;;;4923493;29;20388;-78
2024/01/03 03:58:50;;;;;;;15.27;8.10;;;10.40;96.90;;;;;;4922841;29;20022;-76
2024/01/03 04:01:17;;;;;;;14.48;7.88;;;10.40;97.00;;;;;;4919332;29;20092;-78
2024/01/03 04:03:43;;;;;;;14.30;6.63;;;10.40;97.20;;;;;;4919954;29;20076;-76
2024/01/03 04:06:12;;;;;;;13.85;6.10;;;10.40;97.30;;;;;;4917683;29;20017;-76
2024/01/03 04:08:43;;;;;;;8.15;3.72;;;10.40;97.40;;;;;;4920217;29;20042;-77
2024/01/03 04:11:10;;;;;;;7.68;2.92;;;10.50;97.50;;;;;;4919927;29;20059;-77
2024/01/03 04:13:38;;;;;;;5.82;2.45;;;10.60;97.80;;;;;;4926405;29;20028;-76
2024/01/03 04:16:08;;;;;;;5.30;2.42;;;10.60;97.80;;;;;;4918378;29;20477;-76
2024/01/03 04:18:34;;;;;;;4.30;2.08;;;10.70;97.70;;;;;;4921304;29;20036;-78
2024/01/03 04:21:05;;;;;;;6.63;2.28;;;10.90;97.60;;;;;;4920737;29;20050;-77
2024/01/03 04:23:31;;;;;;;6.03;2.17;;;10.90;97.80;;;;;;4921224;29;20056;-77
2024/01/03 04:25:57;;;;;;;6.57;2.17;;;11.00;97.40;;;;;;4919544;29;20568;-76
2024/01/03 04:28:23;;;;;;;4.35;2.13;;;11.10;97.40;;;;;;4917759;29;20123;-77
2024/01/03 04:30:49;;;;;;;5.28;2.13;;;11.10;97.50;;;;;;4916841;29;20103;-78
2024/01/03 04:33:15;;;;;;;3.53;2.03;;;11.10;97.60;;;;;;4920174;29;20048;-77
2024/01/03 04:35:41;;;;;;;4.43;2.15;;;11.10;97.70;;;;;;4934968;29;20020;-78
2024/01/03 04:38:07;;;;;;;7.82;2.58;;;11.10;97.80;;;;;;4929016;29;20032;-77
2024/01/03 04:40:33;;;;;;;9.25;2.47;;;11.10;98.00;;;;;;4918290;29;20035;-78
2024/01/03 04:42:59;;;;;;;7.93;3.40;;;11.20;98.10;;;;;;4916389;29;20358;-78
2024/01/03 04:45:25;;;;;;;8.90;3.00;;;11.20;98.00;;;;;;4921125;29;20040;-78
2024/01/03 04:47:51;;;;;;;9.40;5.13;;;11.20;98.30;;;;;;4919940;29;20028;-78
2024/01/03 04:50:17;;;;;;;14.23;6.53;;;11.10;98.30;;;;;;4920149;29;20743;-75
2024/01/03 04:52:43;;;;;;;14.40;7.40;;;11.10;98.60;;;;;;4916226;29;20035;-78
2024/01/03 04:55:10;;;;;;;19.50;10.73;;;11.10;98.90;;;;;;4920407;29;20099;-78
2024/01/03 04:57:36;;;;;;;22.30;10.68;;;11.00;99.10;;;;;;4935990;29;20024;-77
2024/01/03 05:00:04;;;;;;;20.70;10.77;;;10.90;99.50;;;;;;4925852;29;20078;-75
2024/01/03 05:02:30;;;;;;;23.27;14.43;;;10.90;99.50;;;;;;4916573;29;20116;-78
2024/01/03 05:04:56;;;;;;;21.13;10.73;;;10.90;99.60;;;;;;4916343;29;20039;-78
2024/01/03 05:07:23;;;;;;;17.42;9.85;;;10.90;99.60;;;;;;4923855;29;20477;-78
2024/01/03 05:09:49;;;;;;;20.83;10.15;;;10.90;99.40;;;;;;4923542;29;20489;-77
2024/01/03 05:12:15;;;;;;;19.65;9.48;;;10.90;99.40;;;;;;4918350;29;20039;-79
2024/01/03 05:14:41;;;;;;;13.70;6.95;;;10.90;99.50;;;;;;4917300;29;20492;-76
2024/01/03 05:17:07;;;;;;;17.63;7.95;;;10.80;99.40;;;;;;4917418;29;20373;-79
2024/01/03 05:19:33;;;;;;;13.57;8.40;;;10.80;99.60;;;;;;4920540;29;20039;-78
2024/01/03 05:21:58;;;;;;;16.33;7.32;;;10.80;99.70;;;;;;4919633;29;20025;-79
2024/01/03 05:24:24;;;;;;;18.67;7.50;;;10.80;99.80;;;;;;4920058;29;20035;-77
2024/01/03 05:26:50;;;;;;;17.27;8.10;;;10.80;99.90;;;;;;4918084;29;20026;-78
2024/01/03 05:29:16;;;;;;;17.45;8.90;;;10.80;99.90;;;;;;4931276;29;20031;-78
2024/01/03 05:31:42;;;;;;;19.33;10.40;;;10.60;99.90;;;;;;4918366;29;20420;-78
2024/01/03 05:34:10;;;;;;;54.63;29.63;;;10.50;99.90;;;;;;4919052;29;20059;-79
2024/01/03 05:36:36;;;;;;;46.28;23.25;;;10.50;99.90;;;;;;4935068;29;20549;-79
2024/01/03 05:39:02;;;;;;;45.08;24.05;;;10.40;99.90;;;;;;4935033;29;20090;-79
2024/01/03 05:41:28;;;;;;;45.50;29.15;;;10.30;99.90;;;;;;4935652;29;20476;-78
2024/01/03 05:43:54;;;;;;;44.28;24.50;;;10.30;99.90;;;;;;4935566;29;20082;-78
2024/01/03 05:46:20;;;;;;;40.90;26.95;;;10.20;99.90;;;;;;4935594;29;20032;-78
2024/01/03 05:48:46;;;;;;;56.75;37.35;;;10.20;99.90;;;;;;4935535;29;20111;-78
2024/01/03 05:51:12;;;;;;;273.95;141.85;;;10.20;99.90;;;;;;4934617;29;20062;-80
2024/01/03 05:53:38;;;;;;;93.70;50.58;;;10.10;99.90;;;;;;4935581;29;20035;-79
2024/01/03 05:56:05;;;;;;;60.15;32.10;;;10.10;99.90;;;;;;4935273;29;20491;-78
2024/01/03 05:58:30;;;;;;;45.58;26.55;;;10.10;99.90;;;;;;4935100;29;20036;-77
2024/01/03 06:00:56;;;;;;;44.15;23.75;;;10.00;99.90;;;;;;4935048;29;20019;-80
2024/01/03 06:03:22;;;;;;;55.22;28.27;;;10.00;99.90;;;;;;4935067;29;20519;-76
2024/01/03 06:05:48;;;;;;;99.50;52.45;;;10.00;99.90;;;;;;4935529;29;20384;-78
2024/01/03 06:08:14;;;;;;;67.85;34.67;;;9.90;99.90;;;;;;4934864;29;20051;-77
2024/01/03 06:10:40;;;;;;;51.88;22.13;;;9.90;99.90;;;;;;4935161;29;20044;-79
2024/01/03 06:13:11;;;;;;;52.13;22.67;;;9.90;99.90;;;;;;4934632;29;20058;-78
2024/01/03 06:15:37;;;;;;;57.13;28.00;;;9.90;99.90;;;;;;4935317;29;20027;-78
2024/01/03 06:18:03;;;;;;;91.57;48.45;;;9.90;99.90;;;;;;4934953;29;20543;-78
2024/01/03 06:20:28;;;;;;;95.53;43.05;;;9.80;99.90;;;;;;4934989;29;20027;-80
2024/01/03 06:22:54;;;;;;;159.18;86.03;;;9.90;99.90;;;;;;4934783;29;20432;-80
2024/01/03 06:25:20;;;;;;;126.90;70.70;;;9.90;99.90;;;;;;4934930;29;20023;-79
2024/01/03 06:27:46;;;;;;;183.90;105.30;;;10.00;99.90;;;;;;4934915;29;20086;-79
2024/01/03 06:30:12;;;;;;;109.30;47.72;;;10.00;99.90;;;;;;4934928;29;20055;-79
2024/01/03 06:32:38;;;;;;;100.13;48.45;;;10.00;99.90;;;;;;4934666;29;20052;-78
2024/01/03 06:35:05;;;;;;;137.93;78.88;;;10.00;99.90;;;;;;4934552;29;20024;-78
2024/01/03 06:37:31;;;;;;;128.65;61.53;;;9.90;99.90;;;;;;4934649;29;20432;-77
2024/01/03 06:39:57;;;;;;;90.68;39.47;;;10.00;99.90;;;;;;4934797;29;20027;-78
2024/01/03 06:42:23;;;;;;;76.30;30.90;;;10.00;99.90;;;;;;4934871;29;20082;-78
2024/01/03 06:44:49;;;;;;;74.88;35.28;;;10.00;99.90;;;;;;4934414;29;20039;-78
2024/01/03 06:47:15;;;;;;;69.70;33.25;;;10.00;99.90;;;;;;4934526;29;20032;-77
2024/01/03 06:49:41;;;;;;;63.15;34.45;;;10.00;99.90;;;;;;4934509;29;20040;-78
2024/01/03 06:52:07;;;;;;;59.15;32.45;;;10.00;99.90;;;;;;4934120;29;20070;-79
2024/01/03 06:54:35;;;;;;;72.82;33.97;;;9.90;99.90;;;;;;4934955;29;20035;-78
2024/01/03 06:57:01;;;;;;;57.70;25.00;;;9.90;99.90;;;;;;4934067;29;20096;-78
2024/01/03 06:59:27;;;;;;;39.33;20.60;;;9.90;99.90;;;;;;4934861;29;20059;-78
2024/01/03 07:01:52;;;;;;;56.55;30.80;;;9.90;99.90;;;;;;4934077;29;20027;-79
2024/01/03 07:04:21;;;;;;;44.30;32.35;;;9.80;99.90;;;;;;4934736;29;20102;-77
2024/01/03 07:06:47;;;;;;;77.65;42.65;;;9.90;99.90;;;;;;4934194;29;20031;-78
2024/01/03 07:09:13;;;;;;;79.15;43.13;;;9.90;99.90;;;;;;4934537;29;20043;-78
2024/01/03 07:11:39;;;;;;;57.00;39.90;;;9.90;99.90;;;;;;4934110;29;20490;-78
2024/01/03 07:14:05;;;;;;;37.60;21.70;;;9.90;99.90;;;;;;4934574;29;20031;-78
2024/01/03 07:16:31;;;;;;;43.78;23.92;;;9.80;99.90;;;;;;4934679;29;20027;-78
2024/01/03 07:18:57;;;;;;;38.63;24.75;;;9.80;99.90;;;;;;4934098;29;20114;-79
2024/01/03 07:21:22;;;;;;;32.63;20.67;;;9.80;99.90;;;;;;4917374;29;20623;-77
2024/01/03 07:23:49;;;;;;;37.53;19.13;;;9.80;99.90;;;;;;4934005;29;20483;-79
2024/01/03 07:26:14;;;;;;;34.38;17.75;;;9.80;99.90;;;;;;4940019;29;20034;-76
2024/01/03 07:28:40;;;;;;;39.13;19.50;;;9.80;99.90;;;;;;4933781;29;20400;-77
2024/01/03 07:31:06;;;;;;;35.92;19.20;;;9.80;99.90;;;;;;4934488;29;20027;-77
2024/01/03 07:33:32;;;;;;;32.20;19.08;;;9.80;99.90;;;;;;4934128;29;20059;-78
2024/01/03 07:35:58;;;;;;;36.28;20.50;;;9.80;99.90;;;;;;4934458;29;20055;-78
2024/01/03 07:38:24;;;;;;;36.13;21.92;;;9.90;99.90;;;;;;4933859;29;20072;-76
2024/01/03 07:40:50;;;;;;;38.03;21.48;;;9.90;99.90;;;;;;4933985;29;20027;-79
2024/01/03 07:43:15;;;;;;;41.58;24.08;;;10.00;99.90;;;;;;4934183;29;20035;-77
2024/01/03 07:45:41;;;;;;;40.45;24.83;;;10.00;99.90;;;;;;4921529;29;20059;-75
2024/01/03 07:48:07;;;;;;;55.33;36.83;;;10.10;99.90;;;;;;4944206;28;20031;-75
2024/01/03 07:50:33;;;;;;;66.55;40.63;;;10.20;99.90;;;;;;4931107;29;20032;-79
2024/01/03 07:52:59;;;;;;;75.90;48.00;;;10.10;99.90;;;;;;4934433;29;20032;-78
2024/01/03 07:55:25;;;;;;;76.95;58.80;;;10.10;99.90;;;;;;4933880;29;20038;-76
2024/01/03 07:57:50;;;;;;;85.35;63.00;;;10.10;99.90;;;;;;4934202;29;20028;-79
2024/01/03 08:00:17;;;;;;;70.72;50.83;;;10.20;99.90;;;;;;4934000;29;20036;-78
2024/01/03 08:02:43;;;;;;;104.00;69.85;;;10.20;99.90;;;;;;4937927;29;20480;-79
2024/01/03 08:05:09;;;;;;;118.10;74.80;;;10.20;99.90;;;;;;4937240;29;20034;-78
2024/01/03 08:07:35;;;;;;;124.45;84.00;;;10.20;99.90;;;;;;4937445;29;20027;-75
2024/01/03 08:10:01;;;;;;;91.55;61.50;;;10.20;99.90;;;;;;4937538;29;20054;-78
2024/01/03 08:12:27;;;;;;;96.78;59.15;;;10.20;99.90;;;;;;4936883;29;20031;-78
2024/01/03 08:14:53;;;;;;;98.90;61.97;;;10.20;99.90;;;;;;4937462;29;20034;-77
2024/01/03 08:17:19;;;;;;;114.32;69.10;;;10.00;99.90;;;;;;4937093;29;20039;-77
2024/01/03 08:19:45;;;;;;;65.97;40.30;;;10.00;99.90;;;;;;4937387;29;20110;-78
2024/01/03 08:22:10;;;;;;;64.88;39.60;;;10.00;99.90;;;;;;4936690;29;20135;-78
2024/01/03 08:24:36;;;;;;;69.40;42.40;;;9.90;99.90;;;;;;4936830;29;20032;-79
2024/01/03 08:27:03;;;;;;;47.20;32.25;;;10.00;99.90;;;;;;4937093;29;20043;-78
2024/01/03 08:29:30;;;;;;;268.98;226.63;;;10.00;99.90;;;;;;4936890;29;20381;-79
2024/01/03 08:31:56;;;;;;;203.63;164.02;;;10.00;99.90;;;;;;4937062;29;20043;-78
2024/01/03 08:34:22;;;;;;;129.50;99.65;;;10.00;99.90;;;;;;4935902;29;20606;-79
2024/01/03 08:36:48;;;;;;;266.38;226.25;;;9.90;99.90;;;;;;4937085;29;20079;-80
2024/01/03 08:39:14;;;;;;;193.50;152.15;;;9.90;99.90;;;;;;4936592;29;20441;-75
2024/01/03 08:41:40;;;;;;;118.93;92.03;;;9.90;99.90;;;;;;4947321;29;20483;-79
2024/01/03 08:44:06;;;;;;;64.00;44.05;;;10.00;99.90;;;;;;4938323;29;20039;-76
2024/01/03 08:46:38;;;;;;;76.00;50.20;;;9.90;99.90;;;;;;4937065;29;20039;-78
2024/01/03 08:49:04;;;;;;;72.15;44.22;;;9.90;99.90;;;;;;4936629;29;20032;-78
2024/01/03 08:51:31;;;;;;;60.15;38.90;;;10.00;99.90;;;;;;4936629;29;20032;-78
2024/01/03 08:53:57;;;;;;;69.45;41.63;;;10.00;99.90;;;;;;4935916;29;20377;-76
2024/01/03 08:56:24;;;;;;;62.15;42.10;;;10.00;99.90;;;;;;4935919;29;20106;-77
2024/01/03 08:58:50;;;;;;;72.82;50.30;;;10.00;99.90;;;;;;4936447;29;20082;-78
2024/01/03 09:01:17;;;;;;;72.65;48.83;;;10.10;99.90;;;;;;4936644;29;20099;-77
2024/01/03 09:03:44;;;;;;;65.93;47.35;;;10.20;99.90;;;;;;4936413;29;20035;-76
2024/01/03 09:06:14;;;;;;;56.10;37.67;;;10.30;99.90;;;;;;4936359;29;20023;-79
2024/01/03 09:08:40;;;;;;;42.22;27.98;;;10.40;99.90;;;;;;4936093;29;20159;-76
2024/01/03 09:11:11;;;;;;;47.90;33.78;;;10.50;99.90;;;;;;4936076;29;20058;-78
2024/01/03 09:13:38;;;;;;;37.15;28.00;;;10.50;99.90;;;;;;4936527;29;20043;-76
2024/01/03 09:16:09;;;;;;;38.17;25.45;;;10.70;99.90;;;;;;4936249;29;20111;-75
2024/01/03 09:18:36;;;;;;;39.35;25.48;;;10.70;99.90;;;;;;4925453;29;20035;-78
2024/01/03 09:21:03;;;;;;;47.60;32.28;;;10.80;99.90;;;;;;4936020;29;20028;-79
2024/01/03 09:23:29;;;;;;;46.55;29.98;;;10.90;99.90;;;;;;4935839;29;20106;-78
2024/01/03 09:25:55;;;;;;;47.90;30.92;;;10.90;99.90;;;;;;4935876;29;20106;-79
2024/01/03 09:28:23;;;;;;;37.80;25.35;;;11.00;99.90;;;;;;4935586;29;20187;-76
2024/01/03 09:30:48;;;;;;;41.22;28.90;;;11.00;99.90;;;;;;4935961;29;20035;-78
2024/01/03 09:33:14;;;;;;;46.53;31.65;;;11.00;99.90;;;;;;4935832;29;20020;-76
2024/01/03 09:35:40;;;;;;;44.72;31.55;;;11.00;99.90;;;;;;4935805;29;20039;-78
2024/01/03 09:38:06;;;;;;;51.65;34.72;;;11.10;99.90;;;;;;4935653;29;20473;-80
2024/01/03 09:40:33;;;;;;;49.67;35.05;;;11.10;99.90;;;;;;4918410;29;20034;-77
2024/01/03 09:43:03;;;;;;;50.42;33.28;;;11.20;99.90;;;;;;4935753;29;20554;-76
2024/01/03 09:45:31;;;;;;;46.65;32.08;;;11.20;99.90;;;;;;4935358;29;20115;-77
2024/01/03 09:47:57;;;;;;;87.82;58.40;;;11.20;99.90;;;;;;4918807;29;20066;-78
2024/01/03 09:50:23;;;;;;;81.57;58.40;;;11.30;99.90;;;;;;4934895;29;20027;-77
2024/01/03 09:52:49;;;;;;;72.70;49.63;;;11.30;99.90;;;;;;4935663;29;20126;-79
2024/01/03 09:55:16;;;;;;;72.43;53.45;;;11.40;99.90;;;;;;4935337;29;20432;-79
2024/01/03 09:57:44;;;;;;;60.30;42.85;;;11.40;99.90;;;;;;4935497;29;20027;-76
2024/01/03 10:00:10;;;;;;;50.88;36.47;;;11.50;99.90;;;;;;4934899;29;20035;-79
2024/01/03 10:02:36;;;;;;;73.38;48.33;;;11.60;99.90;;;;;;4935328;29;20383;-80
2024/01/03 10:05:05;;;;;;;65.10;45.80;;;11.70;99.90;;;;;;4934916;29;20030;-77
2024/01/03 10:07:35;;;;;;;79.55;51.88;;;11.80;99.90;;;;;;4935286;29;20028;-78
2024/01/03 10:10:02;;;;;;;65.00;45.28;;;11.90;99.90;;;;;;4935171;29;20452;-81
2024/01/03 10:12:34;;;;;;;51.33;35.83;;;12.00;99.90;;;;;;4934811;29;20066;-78
2024/01/03 10:15:14;;;;;;;43.90;29.15;;;12.10;99.90;;;;;;4934813;29;20034;-78
2024/01/03 10:17:43;;;;;;;44.22;29.60;;;12.10;99.90;;;;;;4935399;29;20385;-78
2024/01/03 10:20:26;;;;;;;48.22;31.58;;;12.10;99.90;;;;;;4934971;29;20026;-76
2024/01/03 10:23:12;;;;;;;41.15;27.02;;;12.20;99.90;;;;;;4936259;29;20067;-79
2024/01/03 10:25:39;;;;;;;30.30;19.15;;;12.30;99.90;;;;;;4934818;29;20036;-79
2024/01/03 10:28:06;;;;;;;33.30;20.63;;;12.30;99.90;;;;;;4934646;29;20047;-78
2024/01/03 10:30:33;;;;;;;36.35;22.13;;;12.30;99.90;;;;;;4935160;29;20036;-80
2024/01/03 10:33:06;;;;;;;36.47;22.98;;;12.30;99.90;;;;;;4934350;29;20349;-75
2024/01/03 10:35:34;;;;;;;35.63;23.20;;;12.30;99.90;;;;;;4938964;29;20027;-79
2024/01/03 10:38:01;;;;;;;35.72;22.60;;;12.30;99.90;;;;;;4940462;29;20045;-77
2024/01/03 10:40:32;;;;;;;39.35;26.38;;;12.30;99.90;;;;;;4930604;29;20484;-78
2024/01/03 10:42:59;;;;;;;41.53;27.23;;;12.20;99.90;;;;;;4919920;29;20030;-77
2024/01/03 10:45:26;;;;;;;37.08;24.42;;;12.20;99.90;;;;;;4934690;29;20028;-77
2024/01/03 10:47:53;;;;;;;37.75;26.60;;;12.20;99.90;;;;;;4934714;29;20020;-78
2024/01/03 10:50:19;;;;;;;37.63;26.92;;;12.30;99.90;;;;;;4934478;29;20357;-79
2024/01/03 10:52:46;;;;;;;42.42;28.02;;;12.30;99.90;;;;;;4934935;29;20038;-75
2024/01/03 10:55:20;;;;;;;40.50;30.48;;;12.40;99.90;;;;;;4933671;29;20054;-79
2024/01/03 10:58:12;;;;;;;42.13;28.70;;;12.50;99.90;;;;;;4924507;29;20040;-79
2024/01/03 11:00:57;;;;;;;40.67;27.65;;;12.50;99.90;;;;;;4934840;29;20028;-80
2024/01/03 11:03:37;;;;;;;40.63;28.33;;;12.60;99.90;;;;;;4934624;29;20030;-80
2024/01/03 11:06:22;;;;;;;36.88;24.42;;;12.60;99.90;;;;;;4934415;29;20132;-78
2024/01/03 11:08:52;;;;;;;34.58;22.98;;;12.70;99.90;;;;;;4922018;29;20071;-77
2024/01/03 11:11:37;;;;;;;36.08;24.58;;;12.70;99.90;;;;;;4933619;29;20834;-75
2024/01/03 11:14:18;;;;;;;37.65;24.40;;;12.70;99.90;;;;;;4934363;29;20103;-78
2024/01/03 11:16:45;;;;;;;39.92;25.38;;;12.80;99.90;;;;;;4934544;29;20028;-76
2024/01/03 11:19:11;;;;;;;43.15;28.15;;;12.80;99.90;;;;;;4934482;29;20059;-77
2024/01/03 11:21:39;;;;;;;43.95;27.27;;;12.90;99.90;;;;;;4934717;29;20050;-79
2024/01/03 11:24:08;;;;;;;42.75;27.30;;;13.00;99.90;;;;;;4934417;29;20540;-77
2024/01/03 11:26:55;;;;;;;45.78;27.08;;;13.10;99.90;;;;;;4934484;29;20030;-78
2024/01/03 11:29:44;;;;;;;40.40;25.05;;;13.10;99.90;;;;;;4933993;29;20043;-79
2024/01/03 11:32:12;;;;;;;42.33;24.60;;;13.20;99.90;;;;;;4939762;28;20515;-79
2024/01/03 11:34:48;;;;;;;39.42;27.50;;;13.20;99.90;;;;;;4934382;29;20368;-78
2024/01/03 11:37:17;;;;;;;40.50;27.85;;;13.30;99.90;;;;;;4937350;29;20027;-79
2024/01/03 11:39:47;;;;;;;44.83;29.48;;;13.40;99.90;;;;;;4938166;29;20036;-77
2024/01/03 11:42:19;;;;;;;51.60;33.55;;;13.50;99.90;;;;;;4937505;29;20074;-79
2024/01/03 11:44:46;;;;;;;56.63;36.75;;;13.60;99.90;;;;;;4937341;29;20023;-80
2024/01/03 11:47:12;;;;;;;52.25;36.03;;;13.70;99.90;;;;;;4937643;29;20019;-76
2024/01/03 11:49:39;;;;;;;58.17;33.70;;;13.80;99.90;;;;;;4937568;29;20054;-78
2024/01/03 11:52:05;;;;;;;44.10;27.05;;;13.80;99.90;;;;;;4937594;29;20023;-76
2024/01/03 11:54:34;;;;;;;43.97;23.77;;;13.90;99.90;;;;;;4937670;29;20464;-77
2024/01/03 11:57:09;;;;;;;34.72;22.20;;;13.90;99.90;;;;;;4937736;29;20027;-78
2024/01/03 11:59:35;;;;;;;34.30;23.17;;;13.80;99.90;;;;;;4937565;29;20028;-79
2024/01/03 12:02:05;;;;;;;36.15;24.50;;;14.00;99.90;;;;;;4920848;29;20503;-76
2024/01/03 12:04:31;;;;;;;35.17;25.13;;;13.90;99.90;;;;;;4937391;29;20103;-79
2024/01/03 12:06:58;;;;;;;41.70;26.80;;;13.80;99.90;;;;;;4937611;29;20030;-76
2024/01/03 12:09:32;;;;;;;40.95;27.77;;;13.80;99.90;;;;;;4937292;29;20051;-77
2024/01/03 12:11:59;;;;;;;35.65;21.65;;;13.80;99.90;;;;;;4911190;29;20048;-81
2024/01/03 12:14:25;;;;;;;35.47;22.27;;;13.70;99.90;;;;;;4899495;29;20400;-79
2024/01/03 12:16:55;;;;;;;41.67;27.23;;;13.70;99.90;;;;;;4901603;29;20111;-78
2024/01/03 12:19:31;;;;;;;40.25;24.27;;;13.80;99.90;;;;;;4904284;29;20024;-79
2024/01/03 12:21:59;;;;;;;31.02;20.00;;;13.70;99.90;;;;;;4901353;29;20024;-76
2024/01/03 12:24:42;;;;;;;42.65;25.85;;;13.80;99.90;;;;;;4898750;29;20100;-77
2024/01/03 12:27:09;;;;;;;46.60;28.13;;;13.70;99.90;;;;;;4902397;29;20056;-78
2024/01/03 12:29:41;;;;;;;43.88;27.60;;;13.70;99.90;;;;;;4895217;29;20059;-79
2024/01/03 12:32:11;;;;;;;35.38;22.20;;;13.70;99.90;;;;;;4903652;29;20024;-76
2024/01/03 12:34:37;;;;;;;38.20;24.80;;;13.70;99.90;;;;;;4899938;29;20029;-78